Time;durP1;ratioP1;P1;durP2;ratioP2;P2;SDS_P1;SDS_P2;PMS_P1;PMS_P2;Temp;Humidity;BMP_temperature;BMP_pressure;BME280_temperature;BME280_humidity;BME280_pressure;Samples;Min_cycle;Max_cycle;Signal;HPM_P1;HPM_P2
2022/02/25 00:01:51;;;;;;;8.18;2.55;;;3.90;99.90;;;;;;5133622;27;20114;-59
2022/02/25 00:04:16;;;;;;;9.35;2.70;;;4.00;99.90;;;;;;5149878;27;20395;-60
2022/02/25 00:06:42;;;;;;;4.50;2.55;;;3.90;99.90;;;;;;5129567;27;20464;-60
2022/02/25 00:09:07;;;;;;;11.55;2.85;;;3.90;99.90;;;;;;5136948;27;20031;-60
2022/02/25 00:11:33;;;;;;;7.47;3.05;;;3.80;99.90;;;;;;5116033;27;20031;-60
2022/02/25 00:13:59;;;;;;;10.18;3.05;;;3.90;99.90;;;;;;5108332;28;20024;-60
2022/02/25 00:16:24;;;;;;;12.80;3.83;;;3.90;99.90;;;;;;5110902;27;20035;-60
2022/02/25 00:18:50;;;;;;;12.98;3.65;;;3.90;99.90;;;;;;5129923;27;20065;-60
2022/02/25 00:21:15;;;;;;;11.50;3.78;;;3.90;99.90;;;;;;5135073;27;20527;-60
2022/02/25 00:23:41;;;;;;;10.05;3.67;;;3.90;99.90;;;;;;5128092;27;20387;-60
2022/02/25 00:26:06;;;;;;;6.43;2.85;;;3.90;99.90;;;;;;5127475;27;20114;-61
2022/02/25 00:28:32;;;;;;;8.80;2.90;;;4.00;99.90;;;;;;5135468;27;20023;-60
2022/02/25 00:30:58;;;;;;;6.97;2.95;;;4.00;99.90;;;;;;5126479;27;20464;-60
2022/02/25 00:33:24;;;;;;;7.72;3.17;;;4.00;99.90;;;;;;5107476;28;20102;-60
2022/02/25 00:35:52;;;;;;;12.18;3.38;;;4.00;99.90;;;;;;5117865;27;20445;-60
2022/02/25 00:38:19;;;;;;;11.88;3.70;;;4.00;99.90;;;;;;5118916;27;20030;-60
2022/02/25 00:40:45;;;;;;;8.10;3.20;;;4.00;99.90;;;;;;5118260;27;21199;-60
2022/02/25 00:43:10;;;;;;;6.05;2.90;;;4.00;99.90;;;;;;5106805;28;20027;-60
2022/02/25 00:45:36;;;;;;;9.93;3.45;;;4.00;99.90;;;;;;5110708;28;20499;-60
2022/02/25 00:48:02;;;;;;;7.32;3.65;;;4.10;99.90;;;;;;5105785;28;20343;-60
2022/02/25 00:50:27;;;;;;;6.60;4.00;;;4.10;99.90;;;;;;5112574;27;20535;-61
2022/02/25 00:52:54;;;;;;;9.88;3.17;;;4.10;99.90;;;;;;5131234;27;20023;-60
2022/02/25 00:55:19;;;;;;;11.23;4.53;;;4.20;99.90;;;;;;5131863;27;20159;-60
2022/02/25 00:57:49;;;;;;;15.73;3.40;;;4.20;99.90;;;;;;5137543;27;20114;-60
2022/02/25 01:00:17;;;;;;;15.93;3.53;;;4.20;99.90;;;;;;5113184;27;20277;-60
2022/02/25 01:02:43;;;;;;;11.45;3.63;;;4.20;99.90;;;;;;5111694;28;20084;-59
2022/02/25 01:05:09;;;;;;;11.80;3.40;;;4.20;99.90;;;;;;5131759;27;20427;-58
2022/02/25 01:07:36;;;;;;;10.30;3.53;;;4.20;99.90;;;;;;5145926;27;20520;-58
2022/02/25 01:10:03;;;;;;;13.90;3.90;;;4.20;99.90;;;;;;5131767;27;20034;-58
2022/02/25 01:12:29;;;;;;;11.50;3.47;;;4.20;99.90;;;;;;5114419;27;20032;-58
2022/02/25 01:14:54;;;;;;;8.23;3.08;;;4.20;99.90;;;;;;5111936;28;20464;-58
2022/02/25 01:17:20;;;;;;;10.73;3.20;;;4.10;99.90;;;;;;5111397;28;20103;-59
2022/02/25 01:19:46;;;;;;;11.85;3.72;;;4.10;99.90;;;;;;5110026;28;20108;-60
2022/02/25 01:22:12;;;;;;;6.10;3.50;;;4.10;99.90;;;;;;5112618;27;20030;-59
2022/02/25 01:24:37;;;;;;;10.60;3.05;;;4.10;99.90;;;;;;5111859;28;20027;-61
2022/02/25 01:27:06;;;;;;;9.88;3.25;;;4.10;99.90;;;;;;5117021;27;20027;-59
2022/02/25 01:29:31;;;;;;;16.48;5.55;;;4.00;99.90;;;;;;5131292;27;20033;-59
2022/02/25 01:31:57;;;;;;;13.48;3.45;;;4.00;99.90;;;;;;5122990;27;20031;-59
2022/02/25 01:34:22;;;;;;;14.20;2.60;;;4.00;99.90;;;;;;5134787;27;20019;-56
2022/02/25 01:36:48;;;;;;;6.93;2.47;;;3.90;99.90;;;;;;5143214;27;20023;-56
2022/02/25 01:39:14;;;;;;;5.32;2.65;;;3.90;99.90;;;;;;5150921;27;20435;-56
2022/02/25 01:41:40;;;;;;;7.07;2.97;;;3.90;99.90;;;;;;5131677;27;20034;-56
2022/02/25 01:44:14;;;;;;;9.02;3.15;;;3.90;99.90;;;;;;5131853;27;20027;-56
2022/02/25 01:46:39;;;;;;;7.55;2.45;;;3.90;99.90;;;;;;5130397;27;20062;-56
2022/02/25 01:49:05;;;;;;;10.80;2.53;;;3.80;99.90;;;;;;5130799;27;20066;-57
2022/02/25 01:51:31;;;;;;;12.60;4.15;;;3.80;99.90;;;;;;5129795;27;20088;-56
2022/02/25 01:53:57;;;;;;;10.57;3.33;;;3.80;99.90;;;;;;5131656;27;20020;-56
2022/02/25 01:56:23;;;;;;;10.48;2.63;;;3.80;99.90;;;;;;5130929;27;20107;-57
2022/02/25 01:58:48;;;;;;;5.13;2.83;;;3.80;99.90;;;;;;5124723;27;20353;-56
2022/02/25 02:01:14;;;;;;;7.43;2.58;;;3.80;99.90;;;;;;5121613;27;20361;-56
2022/02/25 02:03:39;;;;;;;11.60;3.38;;;3.80;99.90;;;;;;5109395;28;20213;-56
2022/02/25 02:06:07;;;;;;;10.23;2.90;;;3.70;99.90;;;;;;5139655;27;20153;-56
2022/02/25 02:08:33;;;;;;;21.77;2.97;;;3.80;99.90;;;;;;5139020;27;20027;-56
2022/02/25 02:10:59;;;;;;;7.95;2.30;;;3.80;99.90;;;;;;5128708;27;20031;-56
2022/02/25 02:13:24;;;;;;;10.18;3.15;;;3.80;99.90;;;;;;5109941;28;20054;-56
2022/02/25 02:15:50;;;;;;;4.78;2.50;;;3.80;99.90;;;;;;5109983;28;20080;-56
2022/02/25 02:18:15;;;;;;;9.13;2.90;;;3.80;99.90;;;;;;5109299;27;20104;-56
2022/02/25 02:20:41;;;;;;;14.05;3.03;;;3.80;99.90;;;;;;5129870;27;20034;-56
2022/02/25 02:23:07;;;;;;;11.38;2.80;;;3.80;99.90;;;;;;5150990;27;20027;-56
2022/02/25 02:25:32;;;;;;;10.25;3.40;;;3.90;99.90;;;;;;5150975;27;20029;-56
2022/02/25 02:30:42;;;;;;;8.05;2.58;;;3.90;99.90;;;;;;5129999;27;20644;-56
2022/02/25 02:33:08;;;;;;;10.38;2.80;;;3.90;99.90;;;;;;5110950;27;20024;-57
2022/02/25 02:35:34;;;;;;;10.35;2.45;;;3.90;99.90;;;;;;5109057;28;20024;-57
2022/02/25 02:37:59;;;;;;;6.07;2.33;;;3.90;99.90;;;;;;5108746;28;20027;-57
2022/02/25 02:40:25;;;;;;;6.40;2.45;;;4.00;99.90;;;;;;5110574;27;20012;-57
2022/02/25 02:42:50;;;;;;;12.23;3.08;;;3.90;99.90;;;;;;5109478;27;20091;-57
2022/02/25 02:45:16;;;;;;;8.43;2.63;;;4.00;99.90;;;;;;5108996;28;20332;-57
2022/02/25 02:47:42;;;;;;;8.45;2.67;;;4.00;99.90;;;;;;5108868;28;20051;-57
2022/02/25 02:50:08;;;;;;;7.15;2.25;;;4.00;99.90;;;;;;5129157;27;20035;-57
2022/02/25 02:52:34;;;;;;;8.38;2.67;;;3.90;99.90;;;;;;5141509;27;20475;-56
2022/02/25 02:55:00;;;;;;;6.75;2.65;;;3.90;99.90;;;;;;5151105;27;20022;-56
2022/02/25 02:57:26;;;;;;;5.18;2.35;;;3.90;99.90;;;;;;5137128;27;20034;-56
2022/02/25 02:59:51;;;;;;;9.80;2.50;;;3.90;99.90;;;;;;5129880;27;20019;-57
2022/02/25 03:02:17;;;;;;;13.00;3.17;;;3.80;99.90;;;;;;5123755;27;20030;-57
2022/02/25 03:04:42;;;;;;;6.82;2.42;;;3.80;99.90;;;;;;5129834;27;20027;-57
2022/02/25 03:07:10;;;;;;;11.07;3.25;;;3.80;99.90;;;;;;5126271;27;20185;-58
2022/02/25 03:09:36;;;;;;;14.57;3.45;;;3.70;99.90;;;;;;5128637;27;20404;-58
2022/02/25 03:12:02;;;;;;;11.35;3.97;;;3.60;99.90;;;;;;5139200;27;20539;-58
2022/02/25 03:14:28;;;;;;;11.30;3.45;;;3.70;99.90;;;;;;5148399;27;20558;-57
2022/02/25 03:16:54;;;;;;;6.75;2.63;;;3.60;99.90;;;;;;5150064;27;20245;-57
2022/02/25 03:19:19;;;;;;;8.52;2.88;;;3.60;99.90;;;;;;5114879;27;20413;-57
2022/02/25 03:21:46;;;;;;;9.55;3.08;;;3.60;99.90;;;;;;5137797;27;20054;-57
2022/02/25 03:24:11;;;;;;;12.30;3.75;;;3.60;99.90;;;;;;5109626;28;20035;-57
2022/02/25 03:26:37;;;;;;;18.30;4.60;;;3.60;99.90;;;;;;5122926;27;20338;-57
2022/02/25 03:29:03;;;;;;;12.07;3.97;;;3.60;99.90;;;;;;5127835;27;20324;-57
2022/02/25 03:31:29;;;;;;;7.88;2.97;;;3.60;99.90;;;;;;5115817;27;20031;-57
2022/02/25 03:33:55;;;;;;;13.02;3.67;;;3.50;99.90;;;;;;5136790;27;20064;-57
2022/02/25 03:36:20;;;;;;;9.45;3.63;;;3.50;99.90;;;;;;5148859;27;20023;-57
2022/02/25 03:38:47;;;;;;;13.18;3.97;;;3.40;99.90;;;;;;5149868;27;20339;-56
2022/02/25 03:41:13;;;;;;;6.30;3.75;;;3.50;99.90;;;;;;5118085;27;20107;-58
2022/02/25 03:43:38;;;;;;;13.65;3.55;;;3.50;99.90;;;;;;5107698;27;20601;-57
2022/02/25 03:46:04;;;;;;;7.93;3.50;;;3.40;99.90;;;;;;5128893;27;20289;-56
2022/02/25 03:48:29;;;;;;;9.52;3.53;;;3.40;99.90;;;;;;5117953;27;20066;-56
2022/02/25 03:50:55;;;;;;;7.20;3.35;;;3.40;99.90;;;;;;5124354;27;20067;-55
2022/02/25 03:53:21;;;;;;;11.40;3.85;;;3.40;99.90;;;;;;5125365;27;20495;-57
2022/02/25 03:55:46;;;;;;;12.00;4.00;;;3.30;99.90;;;;;;5136067;27;20526;-57
2022/02/25 03:58:12;;;;;;;12.35;4.18;;;3.30;99.90;;;;;;5130646;27;20027;-57
2022/02/25 04:00:37;;;;;;;5.50;3.70;;;3.30;99.90;;;;;;5125639;27;20365;-57
2022/02/25 04:03:03;;;;;;;13.85;3.88;;;3.30;99.90;;;;;;5129015;27;20030;-57
2022/02/25 04:05:28;;;;;;;11.32;3.95;;;3.30;99.90;;;;;;5128919;27;20110;-57
2022/02/25 04:07:54;;;;;;;8.35;4.10;;;3.30;99.90;;;;;;5110199;27;20024;-57
2022/02/25 04:10:20;;;;;;;8.45;4.10;;;3.20;99.90;;;;;;5126866;27;20030;-58
2022/02/25 04:12:45;;;;;;;9.95;5.00;;;3.30;99.90;;;;;;5145496;27;20381;-58
2022/02/25 04:15:11;;;;;;;9.00;4.32;;;3.30;99.90;;;;;;5132146;27;20405;-57
2022/02/25 04:17:37;;;;;;;8.95;4.32;;;3.30;99.90;;;;;;5118515;27;20042;-57
2022/02/25 04:20:04;;;;;;;9.88;5.28;;;3.30;99.90;;;;;;5132551;27;20075;-57
2022/02/25 04:22:30;;;;;;;13.75;5.00;;;3.30;99.90;;;;;;5143189;27;20051;-57
2022/02/25 04:24:56;;;;;;;9.93;5.82;;;3.20;99.90;;;;;;5140576;27;20059;-57
2022/02/25 04:27:21;;;;;;;10.32;5.13;;;3.30;99.90;;;;;;5106750;28;20023;-57
2022/02/25 04:29:48;;;;;;;12.85;4.93;;;3.30;99.90;;;;;;5108117;28;20487;-57
2022/02/25 04:32:13;;;;;;;13.05;5.40;;;3.30;99.90;;;;;;5123683;27;20118;-57
2022/02/25 04:34:39;;;;;;;19.65;7.38;;;3.40;99.90;;;;;;5128012;27;20138;-57
2022/02/25 04:37:05;;;;;;;10.60;5.20;;;3.40;99.90;;;;;;5123639;27;20023;-57
2022/02/25 04:39:30;;;;;;;15.73;5.35;;;3.50;99.90;;;;;;5134244;27;20023;-57
2022/02/25 04:41:56;;;;;;;10.68;5.63;;;3.50;99.90;;;;;;5126697;27;20031;-57
2022/02/25 04:44:22;;;;;;;12.23;5.45;;;3.50;99.90;;;;;;5122850;27;20480;-57
2022/02/25 04:46:48;;;;;;;13.30;5.55;;;3.50;99.90;;;;;;5125916;27;20106;-57
2022/02/25 04:49:14;;;;;;;13.25;5.55;;;3.50;99.90;;;;;;5127425;27;20487;-57
2022/02/25 04:51:40;;;;;;;8.75;5.60;;;3.60;99.90;;;;;;5125892;27;20146;-57
2022/02/25 04:54:06;;;;;;;12.05;5.82;;;3.60;99.90;;;;;;5118354;28;20489;-57
2022/02/25 04:56:31;;;;;;;15.82;5.82;;;3.60;99.90;;;;;;5107922;28;20020;-57
2022/02/25 04:58:57;;;;;;;9.75;4.82;;;3.60;99.90;;;;;;5107183;28;20015;-57
2022/02/25 05:01:23;;;;;;;10.93;5.40;;;3.60;99.90;;;;;;5120727;28;20031;-57
2022/02/25 05:03:49;;;;;;;13.23;6.15;;;3.60;99.90;;;;;;5109347;28;20080;-57
2022/02/25 05:06:14;;;;;;;13.60;5.68;;;3.70;99.90;;;;;;5107703;28;20038;-57
2022/02/25 05:08:40;;;;;;;12.10;5.30;;;3.70;99.90;;;;;;5106699;28;20123;-57
2022/02/25 05:11:06;;;;;;;9.70;5.70;;;3.70;99.90;;;;;;5113361;27;20188;-57
2022/02/25 05:13:31;;;;;;;13.13;6.07;;;3.70;99.90;;;;;;5139988;27;20034;-56
2022/02/25 05:21:25;;;;;;;17.95;5.47;;;3.70;99.90;;;;;;5123219;27;20050;-57
2022/02/25 05:23:51;;;;;;;10.02;4.93;;;3.80;99.90;;;;;;5137980;27;20023;-57
2022/02/25 05:26:17;;;;;;;8.77;4.95;;;3.80;99.90;;;;;;5148638;27;20076;-57
2022/02/25 05:28:42;;;;;;;11.35;5.35;;;3.80;99.90;;;;;;5147756;27;20026;-57
2022/02/25 05:31:08;;;;;;;10.13;4.10;;;3.80;99.90;;;;;;5130928;27;20031;-57
2022/02/25 05:33:33;;;;;;;16.27;5.95;;;3.80;99.90;;;;;;5134951;27;20517;-57
2022/02/25 05:35:59;;;;;;;11.32;5.55;;;3.80;99.90;;;;;;5127580;28;20030;-57
2022/02/25 05:38:25;;;;;;;12.90;4.43;;;3.80;99.90;;;;;;5110862;28;20031;-59
2022/02/25 05:40:51;;;;;;;11.45;4.72;;;3.90;99.90;;;;;;5117007;27;20520;-57
2022/02/25 05:43:17;;;;;;;11.65;5.47;;;3.90;99.90;;;;;;5130096;27;20038;-57
2022/02/25 05:45:42;;;;;;;10.90;4.65;;;3.90;99.90;;;;;;5124631;27;20034;-57
2022/02/25 05:48:08;;;;;;;10.75;4.55;;;3.80;99.90;;;;;;5120952;27;20027;-57
2022/02/25 05:50:33;;;;;;;10.55;4.65;;;3.80;99.90;;;;;;5123236;27;20019;-57
2022/02/25 05:52:59;;;;;;;19.77;4.88;;;3.70;99.90;;;;;;5119138;27;20389;-57
2022/02/25 05:55:25;;;;;;;12.30;4.57;;;3.70;99.90;;;;;;5119109;27;20387;-56
2022/02/25 05:57:51;;;;;;;9.48;3.85;;;3.70;99.90;;;;;;5117807;27;20586;-56
2022/02/25 06:00:18;;;;;;;13.57;4.60;;;3.60;99.90;;;;;;5116004;27;20376;-56
2022/02/25 06:02:46;;;;;;;17.80;6.53;;;3.60;99.90;;;;;;5121951;27;20449;-56
2022/02/25 06:05:12;;;;;;;18.15;5.78;;;3.60;99.90;;;;;;5120945;27;20019;-56
2022/02/25 06:07:38;;;;;;;13.07;5.32;;;3.60;99.90;;;;;;5119388;27;20031;-57
2022/02/25 06:10:05;;;;;;;11.52;4.38;;;3.60;99.90;;;;;;5122591;27;20027;-56
2022/02/25 06:12:30;;;;;;;15.88;4.68;;;3.50;99.90;;;;;;5121835;27;20110;-56
2022/02/25 06:14:56;;;;;;;12.70;4.07;;;3.50;99.90;;;;;;5118536;27;20100;-57
2022/02/25 06:17:22;;;;;;;12.85;5.18;;;3.60;99.90;;;;;;5120733;27;20023;-57
2022/02/25 06:19:47;;;;;;;9.60;4.18;;;3.60;99.90;;;;;;5121043;27;20023;-56
2022/02/25 06:22:13;;;;;;;9.48;4.25;;;3.60;99.90;;;;;;5116243;27;20110;-57
2022/02/25 06:24:40;;;;;;;19.67;4.95;;;3.50;99.90;;;;;;5119999;27;20308;-57
2022/02/25 06:27:06;;;;;;;10.45;4.35;;;3.60;99.90;;;;;;5123113;27;20021;-56
2022/02/25 06:29:31;;;;;;;12.60;4.22;;;3.60;99.90;;;;;;5119717;27;20031;-57
2022/02/25 06:31:58;;;;;;;14.88;4.97;;;3.50;99.90;;;;;;5119093;27;20495;-56
2022/02/25 06:34:23;;;;;;;11.07;4.05;;;3.60;99.90;;;;;;5142298;27;20022;-55
2022/02/25 06:36:49;;;;;;;13.27;4.07;;;3.60;99.90;;;;;;5147464;27;20027;-55
2022/02/25 06:39:15;;;;;;;13.43;4.40;;;3.60;99.90;;;;;;5118301;27;20023;-55
2022/02/25 06:41:41;;;;;;;11.48;5.05;;;3.60;99.90;;;;;;5118455;27;20011;-55
2022/02/25 06:44:06;;;;;;;12.32;3.95;;;3.50;99.90;;;;;;5118805;27;20042;-55
2022/02/25 06:46:32;;;;;;;12.25;4.25;;;3.60;99.90;;;;;;5121747;27;20578;-55
2022/02/25 06:48:57;;;;;;;19.88;4.78;;;3.60;99.90;;;;;;5124552;27;20020;-56
2022/02/25 06:51:24;;;;;;;16.20;3.75;;;3.60;99.90;;;;;;5122179;27;20098;-56
2022/02/25 06:53:50;;;;;;;12.15;4.05;;;3.60;99.90;;;;;;5114764;27;20487;-55
2022/02/25 06:56:16;;;;;;;20.88;3.90;;;3.70;99.90;;;;;;5113127;27;20027;-56
2022/02/25 06:58:41;;;;;;;17.33;4.30;;;3.60;99.90;;;;;;5111995;27;20015;-55
2022/02/25 07:01:08;;;;;;;19.27;4.10;;;3.70;99.90;;;;;;5118541;27;20311;-56
2022/02/25 07:03:34;;;;;;;11.43;3.72;;;3.60;99.90;;;;;;5113634;27;20464;-55
2022/02/25 07:05:59;;;;;;;12.55;4.38;;;3.60;99.90;;;;;;5117426;27;20028;-56
2022/02/25 07:08:25;;;;;;;20.35;4.18;;;3.70;99.90;;;;;;5116677;27;20408;-57
2022/02/25 07:10:51;;;;;;;9.55;3.88;;;3.70;99.90;;;;;;5119643;27;20043;-56
2022/02/25 07:13:17;;;;;;;8.82;3.47;;;3.80;99.90;;;;;;5122397;27;20412;-56
2022/02/25 07:15:43;;;;;;;7.93;3.42;;;3.80;99.90;;;;;;5120652;27;20075;-56
2022/02/25 07:18:09;;;;;;;12.55;3.63;;;3.80;99.90;;;;;;5113748;27;20016;-56
2022/02/25 07:20:36;;;;;;;16.92;3.47;;;3.80;99.90;;;;;;5115627;27;20015;-56
2022/02/25 07:23:03;;;;;;;12.98;3.25;;;3.80;99.90;;;;;;5138640;27;20027;-56
2022/02/25 07:25:28;;;;;;;10.00;3.55;;;3.80;99.90;;;;;;5130140;27;20055;-56
2022/02/25 07:27:54;;;;;;;14.32;4.13;;;3.90;99.90;;;;;;5113197;27;20116;-56
2022/02/25 07:30:20;;;;;;;8.60;2.75;;;3.90;99.90;;;;;;5113485;27;20026;-56
2022/02/25 07:32:46;;;;;;;15.73;3.40;;;3.90;99.90;;;;;;5118440;27;20024;-56
2022/02/25 07:35:12;;;;;;;11.65;2.83;;;4.00;99.90;;;;;;5118704;27;20050;-55
2022/02/25 07:37:39;;;;;;;7.60;3.40;;;4.10;99.90;;;;;;5121275;27;20019;-56
2022/02/25 07:40:07;;;;;;;8.57;3.55;;;4.20;99.90;;;;;;5121764;27;20019;-56
2022/02/25 07:42:33;;;;;;;13.85;4.75;;;4.20;99.90;;;;;;5118414;27;20027;-56
2022/02/25 07:44:59;;;;;;;16.67;4.18;;;4.20;99.90;;;;;;5117578;27;20020;-55
2022/02/25 07:47:26;;;;;;;8.50;3.03;;;4.20;99.90;;;;;;5118969;27;20026;-55
2022/02/25 07:49:53;;;;;;;11.32;2.97;;;4.30;99.90;;;;;;5118859;27;20282;-55
2022/02/25 07:52:19;;;;;;;10.57;3.00;;;4.30;99.90;;;;;;5125590;27;20110;-57
2022/02/25 07:54:45;;;;;;;12.23;3.83;;;4.40;99.90;;;;;;5118227;27;20107;-55
2022/02/25 07:57:10;;;;;;;14.02;3.40;;;4.40;99.90;;;;;;5118963;27;20031;-55
2022/02/25 07:59:36;;;;;;;10.30;3.67;;;4.40;99.90;;;;;;5116364;27;20027;-55
2022/02/25 08:02:02;;;;;;;13.85;3.40;;;4.50;99.90;;;;;;5119283;27;20027;-55
2022/02/25 08:04:27;;;;;;;8.55;3.38;;;4.50;99.90;;;;;;5118297;27;20158;-55
2022/02/25 08:06:52;;;;;;;18.63;3.55;;;4.60;99.90;;;;;;5117571;27;20248;-55
2022/02/25 08:09:21;;;;;;;24.30;5.50;;;4.60;99.90;;;;;;5118868;27;20492;-55
2022/02/25 08:11:47;;;;;;;9.52;3.28;;;4.70;99.90;;;;;;5123929;27;20050;-55
2022/02/25 08:14:13;;;;;;;14.20;3.85;;;4.70;99.90;;;;;;5138109;27;20046;-55
2022/02/25 08:16:39;;;;;;;11.73;3.17;;;4.80;99.90;;;;;;5117676;27;20031;-55
2022/02/25 08:19:06;;;;;;;12.05;3.50;;;4.90;99.90;;;;;;5118880;27;20016;-55
2022/02/25 08:21:32;;;;;;;12.43;3.80;;;5.00;99.90;;;;;;5119711;27;20023;-55
2022/02/25 08:23:58;;;;;;;19.88;3.22;;;5.10;99.90;;;;;;5117164;27;20478;-57
2022/02/25 08:26:23;;;;;;;13.20;2.78;;;5.20;99.90;;;;;;5129651;27;20019;-56
2022/02/25 08:28:49;;;;;;;13.70;3.33;;;5.40;99.90;;;;;;5123314;27;20038;-57
2022/02/25 08:31:14;;;;;;;15.38;2.72;;;5.50;99.90;;;;;;5115853;27;20026;-57
2022/02/25 08:33:40;;;;;;;15.20;3.67;;;5.60;99.90;;;;;;5140664;27;20119;-56
2022/02/25 08:36:07;;;;;;;16.83;3.60;;;5.60;99.90;;;;;;5144583;27;20026;-57
2022/02/25 08:38:33;;;;;;;10.43;3.15;;;5.50;99.90;;;;;;5116481;27;20368;-57
2022/02/25 08:40:58;;;;;;;18.27;2.90;;;5.40;99.90;;;;;;5116670;27;20027;-56
2022/02/25 08:43:24;;;;;;;11.13;2.67;;;5.40;99.90;;;;;;5119509;27;20514;-56
2022/02/25 08:45:50;;;;;;;13.85;3.38;;;5.30;99.90;;;;;;5116245;28;20018;-57
2022/02/25 08:48:15;;;;;;;14.98;3.33;;;5.20;99.90;;;;;;5116293;28;20038;-56
2022/02/25 08:50:42;;;;;;;16.67;3.53;;;5.20;99.90;;;;;;5118425;28;20027;-56
2022/02/25 08:53:07;;;;;;;12.10;2.55;;;5.30;99.90;;;;;;5116931;27;20362;-57
2022/02/25 08:55:34;;;;;;;11.38;2.83;;;5.50;99.90;;;;;;5118072;28;20055;-57
2022/02/25 08:57:59;;;;;;;21.83;3.25;;;5.60;99.90;;;;;;5115489;27;20529;-57
2022/02/25 09:00:26;;;;;;;11.52;2.60;;;5.70;99.90;;;;;;5125328;27;20027;-57
2022/02/25 09:02:52;;;;;;;10.65;3.38;;;5.80;99.90;;;;;;5120300;27;20033;-56
2022/02/25 09:05:21;;;;;;;14.05;3.05;;;5.90;99.90;;;;;;5120061;27;20019;-56
2022/02/25 09:07:47;;;;;;;14.57;3.13;;;6.00;99.90;;;;;;5112728;27;20023;-56
2022/02/25 09:10:13;;;;;;;9.93;2.97;;;6.10;99.90;;;;;;5109568;28;20512;-56
2022/02/25 09:12:39;;;;;;;19.38;3.45;;;6.10;99.90;;;;;;5123684;27;20031;-57
2022/02/25 09:15:07;;;;;;;17.80;3.55;;;6.40;99.90;;;;;;5144787;27;20027;-56
2022/02/25 09:17:48;;;;;;;12.98;3.10;;;6.80;99.90;;;;;;5124169;27;20075;-56
2022/02/25 09:20:15;;;;;;;15.45;3.78;;;7.00;99.90;;;;;;5121478;27;20012;-56
2022/02/25 09:22:40;;;;;;;8.70;2.80;;;6.90;99.90;;;;;;5122262;27;20030;-56
2022/02/25 09:25:18;;;;;;;14.52;2.75;;;7.00;99.90;;;;;;5133460;27;20031;-56
2022/02/25 09:27:44;;;;;;;15.50;3.40;;;7.00;99.90;;;;;;5121072;27;20518;-57
2022/02/25 09:30:13;;;;;;;9.70;2.92;;;7.00;99.90;;;;;;5120161;27;20419;-57
2022/02/25 09:32:40;;;;;;;13.52;2.45;;;6.60;99.90;;;;;;5122547;27;20173;-57
2022/02/25 09:35:06;;;;;;;15.32;3.45;;;6.60;99.90;;;;;;5120711;27;20023;-57
2022/02/25 09:37:34;;;;;;;10.30;2.78;;;6.40;99.90;;;;;;5123167;27;20016;-57
2022/02/25 09:40:02;;;;;;;11.63;2.83;;;6.60;99.90;;;;;;5122377;27;20026;-57
2022/02/25 09:42:28;;;;;;;17.45;3.88;;;6.90;99.90;;;;;;5122316;27;20018;-56
2022/02/25 09:44:53;;;;;;;16.40;3.50;;;7.30;99.90;;;;;;5123867;27;20023;-57
2022/02/25 09:47:19;;;;;;;9.70;2.72;;;8.40;99.90;;;;;;5121377;27;20463;-57
2022/02/25 09:49:45;;;;;;;14.07;3.50;;;9.10;97.60;;;;;;5120810;27;20019;-57
2022/02/25 09:52:15;;;;;;;10.07;3.53;;;9.90;96.30;;;;;;5122734;27;20421;-57
2022/02/25 09:54:41;;;;;;;13.18;3.42;;;10.80;93.40;;;;;;5122303;27;20463;-57
2022/02/25 09:57:07;;;;;;;9.95;3.15;;;11.50;91.30;;;;;;5122539;27;20035;-57
2022/02/25 09:59:34;;;;;;;17.10;3.20;;;12.10;88.90;;;;;;5120756;27;20023;-57
2022/02/25 10:02:04;;;;;;;13.23;3.67;;;12.90;83.00;;;;;;5121477;27;20027;-56
2022/02/25 10:04:30;;;;;;;13.97;3.17;;;12.90;81.00;;;;;;5122377;27;20023;-57
2022/02/25 10:06:56;;;;;;;14.57;3.33;;;14.70;76.00;;;;;;5120696;27;20322;-57
2022/02/25 10:09:34;;;;;;;9.90;3.58;;;15.90;68.70;;;;;;5119615;27;20027;-56
2022/02/25 10:12:09;;;;;;;11.98;3.70;;;16.00;64.40;;;;;;5139923;27;20054;-60
2022/02/25 10:14:40;;;;;;;18.25;3.70;;;15.70;62.10;;;;;;5119918;27;20047;-56
2022/02/25 10:17:25;;;;;;;16.35;3.47;;;15.00;62.90;;;;;;5140984;27;20023;-56
2022/02/25 10:20:03;;;;;;;16.83;3.78;;;14.50;63.80;;;;;;5139998;27;20425;-56
2022/02/25 10:22:37;;;;;;;15.18;3.50;;;12.30;69.50;;;;;;5133133;27;20037;-57
2022/02/25 10:25:06;;;;;;;13.68;3.63;;;11.70;73.70;;;;;;5142737;27;20061;-56
2022/02/25 10:27:36;;;;;;;11.10;3.55;;;11.60;73.80;;;;;;5115708;27;20037;-56
2022/02/25 10:30:16;;;;;;;12.63;3.30;;;10.60;78.20;;;;;;5113130;27;20037;-57
2022/02/25 10:33:08;;;;;;;23.40;4.45;;;10.00;80.50;;;;;;5135319;27;20066;-56
2022/02/25 10:35:37;;;;;;;15.57;3.55;;;9.10;87.10;;;;;;5107968;28;20055;-56
2022/02/25 10:38:07;;;;;;;15.07;3.63;;;8.60;90.40;;;;;;5139078;27;20016;-56
2022/02/25 10:40:37;;;;;;;10.18;3.10;;;8.40;91.90;;;;;;5142927;27;20027;-58
2022/02/25 10:43:08;;;;;;;16.92;4.57;;;8.00;93.90;;;;;;5125510;27;20034;-55
2022/02/25 10:45:40;;;;;;;15.43;3.88;;;8.10;94.30;;;;;;5112759;27;20027;-57
2022/02/25 10:48:30;;;;;;;18.08;3.53;;;8.00;94.60;;;;;;5121695;27;20031;-57
2022/02/25 10:51:02;;;;;;;11.27;3.33;;;7.60;96.10;;;;;;5107924;27;20561;-58
2022/02/25 10:53:29;;;;;;;16.23;3.38;;;7.50;97.70;;;;;;5119668;27;20491;-57
2022/02/25 10:56:09;;;;;;;10.35;3.75;;;7.10;98.90;;;;;;5119613;27;20020;-57
2022/02/25 10:58:40;;;;;;;12.55;3.78;;;6.90;99.90;;;;;;5122309;27;20512;-57
2022/02/25 11:01:06;;;;;;;;;;;6.90;99.90;;;;;;5123127;27;20333;-57
2022/02/25 11:03:31;;;;;;;13.88;2.67;;;6.70;99.90;;;;;;5120351;27;20245;-57
2022/02/25 11:05:57;;;;;;;10.45;3.40;;;6.60;99.90;;;;;;5122557;27;20066;-57
2022/02/25 11:08:23;;;;;;;9.70;3.40;;;6.60;99.90;;;;;;5118749;27;20095;-57
2022/02/25 11:10:49;;;;;;;20.70;4.03;;;6.40;99.90;;;;;;5120701;27;20125;-58
2022/02/25 11:13:17;;;;;;;10.20;3.38;;;6.20;99.90;;;;;;5119394;27;20035;-58
2022/02/25 11:15:43;;;;;;;22.10;4.53;;;6.20;99.90;;;;;;5113595;27;20020;-56
2022/02/25 11:18:10;;;;;;;15.25;3.30;;;6.10;99.90;;;;;;5118084;27;20016;-56
2022/02/25 11:20:40;;;;;;;23.52;5.45;;;6.00;99.90;;;;;;5114827;27;20019;-56
2022/02/25 11:23:10;;;;;;;16.23;4.20;;;6.00;99.90;;;;;;5123516;27;20063;-57
2022/02/25 11:25:37;;;;;;;12.40;3.22;;;5.90;99.90;;;;;;5118191;27;20425;-57
2022/02/25 11:28:04;;;;;;;14.98;3.72;;;5.90;99.90;;;;;;5125095;27;20457;-57
2022/02/25 11:30:51;;;;;;;11.48;4.05;;;5.80;99.90;;;;;;5112469;27;20316;-57
2022/02/25 11:33:21;;;;;;;8.93;3.83;;;5.90;99.90;;;;;;5115309;27;20034;-57
2022/02/25 11:35:51;;;;;;;16.15;4.22;;;5.90;99.90;;;;;;5121630;27;20251;-57
2022/02/25 11:38:31;;;;;;;15.80;3.80;;;5.80;99.90;;;;;;5118162;27;20100;-57
2022/02/25 11:41:02;;;;;;;14.60;3.75;;;5.80;99.90;;;;;;5117563;27;20109;-57
2022/02/25 11:43:32;;;;;;;17.25;4.75;;;5.70;99.90;;;;;;5109426;28;20024;-57
2022/02/25 11:45:58;;;;;;;11.35;4.45;;;5.80;99.90;;;;;;5111675;27;20377;-58
2022/02/25 11:48:26;;;;;;;13.55;5.35;;;5.80;99.90;;;;;;5115579;27;20029;-57
2022/02/25 11:50:55;;;;;;;14.40;4.80;;;5.80;99.90;;;;;;5122203;27;20035;-57
2022/02/25 11:53:28;;;;;;;18.10;4.53;;;5.80;99.90;;;;;;5126923;27;20030;-57
2022/02/25 11:55:53;;;;;;;13.25;4.50;;;5.90;99.90;;;;;;5125744;27;20020;-57
2022/02/25 11:58:51;;;;;;;14.20;4.22;;;6.00;99.90;;;;;;5108832;28;20358;-57
2022/02/25 12:01:20;;;;;;;16.55;5.97;;;6.30;99.90;;;;;;5114859;27;20102;-57
2022/02/25 12:04:07;;;;;;;12.90;4.38;;;6.40;99.90;;;;;;5124534;27;20080;-58
2022/02/25 12:06:55;;;;;;;10.13;4.40;;;6.20;99.90;;;;;;5108072;27;20129;-57
2022/02/25 12:09:42;;;;;;;12.95;4.63;;;6.80;99.90;;;;;;5118814;27;20288;-58
2022/02/25 12:12:23;;;;;;;17.65;4.57;;;7.40;99.90;;;;;;5119783;27;20132;-58
2022/02/25 12:15:03;;;;;;;15.88;3.83;;;8.60;99.90;;;;;;5118460;27;20050;-56
2022/02/25 12:17:39;;;;;;;17.30;4.50;;;9.60;99.90;;;;;;5121992;27;20126;-57
2022/02/25 12:20:07;;;;;;;9.55;3.97;;;9.60;99.10;;;;;;5118168;27;20012;-57
2022/02/25 12:22:49;;;;;;;11.18;3.50;;;9.60;99.20;;;;;;5121659;27;20024;-56
2022/02/25 12:25:44;;;;;;;12.05;3.45;;;10.70;98.30;;;;;;5118397;27;20027;-56
2022/02/25 12:28:31;;;;;;;11.73;3.63;;;11.50;93.50;;;;;;5122527;27;20030;-56
2022/02/25 12:31:29;;;;;;;10.48;3.97;;;10.80;94.10;;;;;;5121796;27;20083;-56
2022/02/25 12:34:03;;;;;;;12.43;3.95;;;10.30;95.20;;;;;;5078739;27;20114;-55
2022/02/25 12:36:29;;;;;;;10.88;3.72;;;9.70;96.30;;;;;;5116609;27;20538;-55
2022/02/25 12:39:01;;;;;;;11.48;4.40;;;9.50;96.80;;;;;;5118611;27;20028;-55
2022/02/25 12:41:30;;;;;;;13.02;3.95;;;9.10;97.80;;;;;;5120123;27;20023;-55
2022/02/25 12:44:01;;;;;;;12.65;4.60;;;8.90;97.40;;;;;;5120104;27;20111;-55
2022/02/25 12:46:36;;;;;;;10.40;3.92;;;8.60;98.30;;;;;;5118954;27;20094;-56
2022/02/25 12:49:04;;;;;;;14.13;4.50;;;8.40;99.20;;;;;;5116277;27;20023;-55
2022/02/25 12:51:29;;;;;;;14.63;3.92;;;8.20;99.90;;;;;;5119808;27;20138;-56
2022/02/25 12:54:02;;;;;;;13.82;4.05;;;8.40;99.90;;;;;;5140245;27;20648;-56
2022/02/25 12:56:32;;;;;;;11.68;3.53;;;8.70;99.90;;;;;;5148319;27;20130;-55
2022/02/25 12:59:12;;;;;;;11.85;3.47;;;9.30;99.50;;;;;;5116644;28;20325;-55